Time,TemperatureF,DewpointF,PressureIn,WindDirection,WindDirectionDegrees,WindSpeedMPH,WindSpeedGustMPH,Humidity,HourlyPrecipIn,Conditions,Clouds,dailyrainin,SolarRadiationWatts/m^2,SoftwareType,DateUTC
2013-10-06 00:12:00,28.0,17.0,-100.00,WSW,238,6.0,10.0,62,0.00,,,-99.99,0.000000,,2013-10-06 06:12:00,
2013-10-06 00:22:00,28.0,17.0,-100.00,WSW,238,6.0,10.0,62,0.00,,,-99.99,0.000000,,2013-10-06 06:22:00,
2013-10-06 00:32:00,28.0,17.0,-100.00,WSW,238,6.0,10.0,62,0.00,,,-99.99,0.000000,,2013-10-06 06:32:00,
2013-10-06 00:42:00,28.0,17.0,-100.00,WSW,238,6.0,10.0,62,0.00,,,-99.99,0.000000,,2013-10-06 06:42:00,
2013-10-06 01:11:00,26.0,16.0,-100.00,SW,217,5.0,10.0,66,0.00,,,-99.99,0.000000,,2013-10-06 07:11:00,
2013-10-06 01:22:00,26.0,16.0,-100.00,SW,217,5.0,10.0,66,0.00,,,-99.99,0.000000,,2013-10-06 07:22:00,
2013-10-06 01:32:00,26.0,16.0,-100.00,SW,217,5.0,10.0,66,0.00,,,-99.99,0.000000,,2013-10-06 07:32:00,
2013-10-06 01:42:00,26.0,16.0,-100.00,SW,217,5.0,10.0,66,0.00,,,-99.99,0.000000,,2013-10-06 07:42:00,
2013-10-06 02:11:00,27.0,9.0,-100.00,SW,219,5.0,8.0,47,0.00,,,0.00,0.000000,,2013-10-06 08:11:00,
2013-10-06 02:22:00,27.0,9.0,-100.00,SW,219,5.0,8.0,47,0.00,,,0.00,0.000000,,2013-10-06 08:22:00,
2013-10-06 02:32:00,27.0,9.0,-100.00,SW,219,5.0,8.0,47,0.00,,,0.00,0.000000,,2013-10-06 08:32:00,
2013-10-06 02:42:00,27.0,9.0,-100.00,SW,219,5.0,8.0,47,0.00,,,0.00,0.000000,,2013-10-06 08:42:00,
2013-10-06 04:13:00,26.0,6.0,-100.00,NNE,21,2.0,4.0,42,-99.99,,,0.00,0.000000,,2013-10-06 10:13:00,
2013-10-06 04:23:00,26.0,6.0,-100.00,NNE,21,2.0,4.0,42,-99.99,,,0.00,0.000000,,2013-10-06 10:23:00,
2013-10-06 04:32:00,26.0,6.0,-100.00,NNE,21,2.0,4.0,42,-99.99,,,0.00,0.000000,,2013-10-06 10:32:00,
2013-10-06 04:42:00,26.0,6.0,-100.00,NNE,21,2.0,4.0,42,-99.99,,,0.00,0.000000,,2013-10-06 10:42:00,
2013-10-06 05:12:00,25.0,10.0,-100.00,SW,228,0.0,4.0,52,0.00,,,0.00,0.000000,,2013-10-06 11:12:00,
2013-10-06 05:21:00,25.0,10.0,-100.00,SW,228,0.0,4.0,52,0.00,,,0.00,0.000000,,2013-10-06 11:21:00,
2013-10-06 05:33:00,25.0,10.0,-100.00,SW,228,0.0,4.0,52,0.00,,,0.00,0.000000,,2013-10-06 11:33:00,
2013-10-06 05:42:00,25.0,10.0,-100.00,SW,228,0.0,4.0,52,0.00,,,0.00,0.000000,,2013-10-06 11:42:00,
2013-10-06 06:12:00,25.0,8.0,-100.00,WSW,244,0.0,4.0,47,0.00,,,0.00,0.000000,,2013-10-06 12:12:00,
2013-10-06 06:22:00,25.0,8.0,-100.00,WSW,244,0.0,4.0,47,0.00,,,0.00,0.000000,,2013-10-06 12:22:00,
2013-10-06 06:32:00,25.0,8.0,-100.00,WSW,244,0.0,4.0,47,0.00,,,0.00,0.000000,,2013-10-06 12:32:00,
2013-10-06 07:11:00,25.0,6.0,-100.00,SW,221,2.0,5.0,44,0.00,,,0.00,0.000000,,2013-10-06 13:11:00,
2013-10-06 07:21:00,25.0,6.0,-100.00,SW,221,2.0,5.0,44,0.00,,,0.00,0.000000,,2013-10-06 13:21:00,
2013-10-06 07:32:00,25.0,6.0,-100.00,SW,221,2.0,5.0,44,0.00,,,0.00,0.000000,,2013-10-06 13:32:00,
2013-10-06 11:22:00,43.0,18.0,-100.00,WSW,255,2.0,8.0,36,-99.99,,,0.00,648.000000,,2013-10-06 17:22:00,
2013-10-06 11:33:00,43.0,18.0,-100.00,WSW,255,2.0,8.0,36,-99.99,,,0.00,648.000000,,2013-10-06 17:33:00,
2013-10-06 11:42:00,43.0,18.0,-100.00,WSW,255,2.0,8.0,36,-99.99,,,0.00,648.000000,,2013-10-06 17:42:00,
2013-10-06 12:12:00,48.0,17.0,-100.00,NE,52,1.0,6.0,29,0.00,,,0.00,853.000000,,2013-10-06 18:12:00,
2013-10-06 12:21:00,48.0,17.0,-100.00,NE,52,1.0,6.0,29,0.00,,,0.00,853.000000,,2013-10-06 18:21:00,
2013-10-06 12:32:00,48.0,17.0,-100.00,NE,52,1.0,6.0,29,0.00,,,0.00,853.000000,,2013-10-06 18:32:00,
2013-10-06 13:11:00,54.0,18.0,-100.00,ENE,77,1.0,10.0,24,0.00,,,0.00,941.000000,,2013-10-06 19:11:00,
2013-10-06 13:42:00,54.0,18.0,-100.00,ENE,77,1.0,10.0,24,0.00,,,0.00,941.000000,,2013-10-06 19:42:00,
2013-10-06 14:11:00,56.0,16.0,-100.00,WNW,299,4.0,9.0,20,0.00,,,0.00,955.000000,,2013-10-06 20:11:00,
2013-10-06 14:22:00,56.0,16.0,-100.00,WNW,299,4.0,9.0,20,0.00,,,0.00,955.000000,,2013-10-06 20:22:00,
2013-10-06 14:32:00,56.0,16.0,-100.00,WNW,299,4.0,9.0,20,0.00,,,0.00,955.000000,,2013-10-06 20:32:00,
2013-10-06 14:42:00,56.0,16.0,-100.00,WNW,299,4.0,9.0,20,0.00,,,0.00,955.000000,,2013-10-06 20:42:00,
2013-10-06 15:11:00,59.0,19.0,-100.00,NW,324,5.0,14.0,21,0.00,,,0.00,894.000000,,2013-10-06 21:11:00,
2013-10-06 15:22:00,59.0,19.0,-100.00,NW,324,5.0,14.0,21,0.00,,,0.00,894.000000,,2013-10-06 21:22:00,
2013-10-06 15:34:00,59.0,19.0,-100.00,NW,324,5.0,14.0,21,0.00,,,0.00,894.000000,,2013-10-06 21:34:00,
2013-10-06 15:44:00,59.0,19.0,-100.00,NW,324,5.0,14.0,21,0.00,,,0.00,894.000000,,2013-10-06 21:44:00,
2013-10-06 16:13:00,59.0,19.0,-100.00,WNW,292,5.0,13.0,21,0.00,,,0.00,759.000000,,2013-10-06 22:13:00,
2013-10-06 16:24:00,59.0,19.0,-100.00,WNW,292,5.0,13.0,21,0.00,,,0.00,759.000000,,2013-10-06 22:24:00,
2013-10-06 16:33:00,59.0,19.0,-100.00,WNW,292,5.0,13.0,21,0.00,,,0.00,759.000000,,2013-10-06 22:33:00,
2013-10-06 16:42:00,59.0,19.0,-100.00,WNW,292,5.0,13.0,21,0.00,,,0.00,759.000000,,2013-10-06 22:42:00,
2013-10-06 17:12:00,57.0,22.0,-100.00,NW,315,7.0,15.0,26,0.00,,,0.00,564.000000,,2013-10-06 23:12:00,
2013-10-06 17:22:00,57.0,22.0,-100.00,NW,315,7.0,15.0,26,0.00,,,0.00,564.000000,,2013-10-06 23:22:00,
2013-10-06 17:34:00,57.0,22.0,-100.00,NW,315,7.0,15.0,26,0.00,,,0.00,564.000000,,2013-10-06 23:34:00,
2013-10-06 17:42:00,57.0,22.0,-100.00,NW,315,7.0,15.0,26,0.00,,,0.00,564.000000,,2013-10-06 23:42:00,
2013-10-06 18:12:00,56.0,26.0,-100.00,NW,304,6.0,14.0,31,0.00,,,0.00,317.000000,,2013-10-07 00:12:00,
2013-10-06 18:22:00,56.0,26.0,-100.00,NW,304,6.0,14.0,31,0.00,,,0.00,317.000000,,2013-10-07 00:22:00,
2013-10-06 18:32:00,56.0,26.0,-100.00,NW,304,6.0,14.0,31,0.00,,,0.00,317.000000,,2013-10-07 00:32:00,
2013-10-06 18:42:00,56.0,26.0,-100.00,NW,304,6.0,14.0,31,0.00,,,0.00,317.000000,,2013-10-07 00:42:00,
2013-10-06 19:11:00,48.0,24.0,-100.00,NW,312,6.0,10.0,39,0.00,,,0.00,13.000000,,2013-10-07 01:11:00,
2013-10-06 19:22:00,48.0,24.0,-100.00,NW,312,6.0,10.0,39,0.00,,,0.00,13.000000,,2013-10-07 01:22:00,
2013-10-06 19:32:00,48.0,24.0,-100.00,NW,312,6.0,10.0,39,0.00,,,0.00,13.000000,,2013-10-07 01:32:00,
2013-10-06 19:42:00,48.0,24.0,-100.00,NW,312,6.0,10.0,39,0.00,,,0.00,13.000000,,2013-10-07 01:42:00,
2013-10-06 20:12:00,42.0,23.0,-100.00,WNW,300,7.0,16.0,47,0.00,,,0.00,0.000000,,2013-10-07 02:12:00,
2013-10-06 20:22:00,42.0,23.0,-100.00,WNW,300,7.0,16.0,47,0.00,,,0.00,0.000000,,2013-10-07 02:22:00,
2013-10-06 20:32:00,42.0,23.0,-100.00,WNW,300,7.0,16.0,47,0.00,,,0.00,0.000000,,2013-10-07 02:32:00,
2013-10-06 20:42:00,42.0,23.0,-100.00,WNW,300,7.0,16.0,47,0.00,,,0.00,0.000000,,2013-10-07 02:42:00,
2013-10-06 21:12:00,42.0,22.0,-100.00,WSW,249,7.0,11.0,44,0.00,,,0.00,0.000000,,2013-10-07 03:12:00,
2013-10-06 21:22:00,42.0,22.0,-100.00,WSW,249,7.0,11.0,44,0.00,,,0.00,0.000000,,2013-10-07 03:22:00,
2013-10-06 21:34:00,42.0,22.0,-100.00,WSW,249,7.0,11.0,44,0.00,,,0.00,0.000000,,2013-10-07 03:34:00,
2013-10-06 21:44:00,42.0,22.0,-100.00,WSW,249,7.0,11.0,44,0.00,,,0.00,0.000000,,2013-10-07 03:44:00,
2013-10-06 22:13:00,42.0,24.0,-100.00,SW,235,4.0,9.0,49,0.00,,,-99.99,0.000000,,2013-10-07 04:13:00,
2013-10-06 22:24:00,42.0,24.0,-100.00,SW,235,4.0,9.0,49,0.00,,,-99.99,0.000000,,2013-10-07 04:24:00,
2013-10-06 22:34:00,42.0,24.0,-100.00,SW,235,4.0,9.0,49,0.00,,,-99.99,0.000000,,2013-10-07 04:34:00,
2013-10-06 22:44:00,42.0,24.0,-100.00,SW,235,4.0,9.0,49,0.00,,,-99.99,0.000000,,2013-10-07 04:44:00,
2013-10-06 23:13:00,40.0,23.0,-100.00,SW,223,4.0,6.0,51,0.00,,,0.00,0.000000,,2013-10-07 05:13:00,
2013-10-06 23:22:00,40.0,23.0,-100.00,SW,223,4.0,6.0,51,0.00,,,0.00,0.000000,,2013-10-07 05:22:00,
2013-10-06 23:34:00,40.0,23.0,-100.00,SW,223,4.0,6.0,51,0.00,,,0.00,0.000000,,2013-10-07 05:34:00,
2013-10-06 23:43:00,40.0,23.0,-100.00,SW,223,4.0,6.0,51,0.00,,,0.00,0.000000,,2013-10-07 05:43:00,